Terminal Aerodrome Forecast
Issued by NWS

Home | Current Version | Previous Version | Text Only | Print | Product List | Glossary On
Versions: 1 2 3 4 5 6 7 8 9 10 11 12 13 14 15 16 17 18 19 20 21 22 23 24 25 26 27 28 29
000
FTUS41 KCTP 011750
TAFUNV
TAF
KUNV 011750Z 0118/0218 26010KT 6SM -RA SCT015 OVC035 WS020/24038KT
      TEMPO 0118/0120 3SM -RA BR BKN015 OVC025
     FM012000 24017G30KT P6SM VCSH BKN040
     FM020300 28015G28KT 5SM -SHRA BR OVC030
     FM020700 28015G25KT P6SM BKN035=

USA.gov is the U.S. government's official web portal to all federal, state and local government web resources and services.